sensor_id;sensor_type;location;lat;lon;timestamp;P1;durP1;ratioP1;P2;durP2;ratioP2
26750;SDS011;14345;48.272;25.926;2023-03-19T00:01:47;42.35;;;26.35;;
26750;SDS011;14345;48.272;25.926;2023-03-19T00:04:13;41.00;;;26.25;;
26750;SDS011;14345;48.272;25.926;2023-03-19T00:06:41;38.75;;;25.10;;
26750;SDS011;14345;48.272;25.926;2023-03-19T00:09:07;39.38;;;26.60;;
26750;SDS011;14345;48.272;25.926;2023-03-19T00:11:33;41.28;;;25.17;;
26750;SDS011;14345;48.272;25.926;2023-03-19T00:13:59;41.72;;;26.75;;
26750;SDS011;14345;48.272;25.926;2023-03-19T00:16:25;40.33;;;26.38;;
26750;SDS011;14345;48.272;25.926;2023-03-19T00:18:51;43.97;;;27.70;;
26750;SDS011;14345;48.272;25.926;2023-03-19T00:21:17;46.38;;;29.38;;
26750;SDS011;14345;48.272;25.926;2023-03-19T00:23:43;48.65;;;30.05;;
26750;SDS011;14345;48.272;25.926;2023-03-19T00:26:10;45.42;;;27.75;;
26750;SDS011;14345;48.272;25.926;2023-03-19T00:28:36;45.20;;;28.05;;
26750;SDS011;14345;48.272;25.926;2023-03-19T00:31:09;44.13;;;28.95;;
26750;SDS011;14345;48.272;25.926;2023-03-19T00:33:36;47.58;;;29.95;;
26750;SDS011;14345;48.272;25.926;2023-03-19T00:36:02;44.53;;;29.83;;
26750;SDS011;14345;48.272;25.926;2023-03-19T00:38:29;55.05;;;33.90;;
26750;SDS011;14345;48.272;25.926;2023-03-19T00:40:55;48.53;;;31.40;;
26750;SDS011;14345;48.272;25.926;2023-03-19T00:43:21;56.17;;;36.20;;
26750;SDS011;14345;48.272;25.926;2023-03-19T00:45:47;51.15;;;32.80;;
26750;SDS011;14345;48.272;25.926;2023-03-19T00:48:13;45.08;;;30.17;;
26750;SDS011;14345;48.272;25.926;2023-03-19T00:50:39;44.25;;;27.95;;
26750;SDS011;14345;48.272;25.926;2023-03-19T00:53:05;44.22;;;28.60;;
26750;SDS011;14345;48.272;25.926;2023-03-19T00:55:31;47.78;;;31.38;;
26750;SDS011;14345;48.272;25.926;2023-03-19T00:57:57;50.63;;;31.20;;
26750;SDS011;14345;48.272;25.926;2023-03-19T01:00:23;53.95;;;35.10;;
26750;SDS011;14345;48.272;25.926;2023-03-19T01:02:49;47.72;;;30.48;;
26750;SDS011;14345;48.272;25.926;2023-03-19T01:05:15;51.55;;;31.52;;
26750;SDS011;14345;48.272;25.926;2023-03-19T01:07:42;49.08;;;31.35;;
26750;SDS011;14345;48.272;25.926;2023-03-19T01:10:08;46.17;;;30.05;;
26750;SDS011;14345;48.272;25.926;2023-03-19T01:12:34;46.90;;;30.80;;
26750;SDS011;14345;48.272;25.926;2023-03-19T01:15:01;46.10;;;30.63;;
26750;SDS011;14345;48.272;25.926;2023-03-19T01:17:27;44.05;;;29.08;;
26750;SDS011;14345;48.272;25.926;2023-03-19T01:19:53;43.30;;;28.85;;
26750;SDS011;14345;48.272;25.926;2023-03-19T01:22:19;44.92;;;29.25;;
26750;SDS011;14345;48.272;25.926;2023-03-19T01:24:45;48.47;;;31.25;;
26750;SDS011;14345;48.272;25.926;2023-03-19T01:27:11;49.45;;;31.73;;
26750;SDS011;14345;48.272;25.926;2023-03-19T01:29:37;51.58;;;32.50;;
26750;SDS011;14345;48.272;25.926;2023-03-19T01:32:03;52.50;;;32.33;;
26750;SDS011;14345;48.272;25.926;2023-03-19T01:34:30;48.13;;;31.00;;
26750;SDS011;14345;48.272;25.926;2023-03-19T01:36:56;46.00;;;31.30;;
26750;SDS011;14345;48.272;25.926;2023-03-19T01:39:22;45.70;;;30.63;;
26750;SDS011;14345;48.272;25.926;2023-03-19T01:41:48;44.95;;;28.88;;
26750;SDS011;14345;48.272;25.926;2023-03-19T01:44:24;48.80;;;29.33;;
26750;SDS011;14345;48.272;25.926;2023-03-19T01:46:50;44.95;;;29.52;;
26750;SDS011;14345;48.272;25.926;2023-03-19T01:49:17;45.95;;;30.02;;
26750;SDS011;14345;48.272;25.926;2023-03-19T01:51:44;49.95;;;32.13;;
26750;SDS011;14345;48.272;25.926;2023-03-19T01:54:12;50.35;;;31.48;;
26750;SDS011;14345;48.272;25.926;2023-03-19T01:56:39;46.58;;;29.52;;
26750;SDS011;14345;48.272;25.926;2023-03-19T01:59:10;48.35;;;30.15;;
26750;SDS011;14345;48.272;25.926;2023-03-19T02:01:38;47.28;;;30.40;;
26750;SDS011;14345;48.272;25.926;2023-03-19T02:04:07;45.00;;;29.15;;
26750;SDS011;14345;48.272;25.926;2023-03-19T02:06:34;51.22;;;30.80;;
26750;SDS011;14345;48.272;25.926;2023-03-19T02:09:01;46.50;;;29.13;;
26750;SDS011;14345;48.272;25.926;2023-03-19T02:11:27;46.90;;;29.83;;
26750;SDS011;14345;48.272;25.926;2023-03-19T02:13:53;45.35;;;29.27;;
26750;SDS011;14345;48.272;25.926;2023-03-19T02:16:19;46.78;;;29.83;;
26750;SDS011;14345;48.272;25.926;2023-03-19T02:18:46;44.03;;;29.35;;
26750;SDS011;14345;48.272;25.926;2023-03-19T02:21:15;49.88;;;31.58;;
26750;SDS011;14345;48.272;25.926;2023-03-19T02:26:26;46.92;;;29.15;;
26750;SDS011;14345;48.272;25.926;2023-03-19T02:28:53;46.60;;;29.25;;
26750;SDS011;14345;48.272;25.926;2023-03-19T02:31:20;41.30;;;27.15;;
26750;SDS011;14345;48.272;25.926;2023-03-19T02:33:57;46.30;;;29.73;;
26750;SDS011;14345;48.272;25.926;2023-03-19T02:36:23;44.60;;;28.63;;
26750;SDS011;14345;48.272;25.926;2023-03-19T02:38:51;44.67;;;29.05;;
26750;SDS011;14345;48.272;25.926;2023-03-19T02:41:18;47.08;;;28.42;;
26750;SDS011;14345;48.272;25.926;2023-03-19T02:43:44;47.78;;;30.35;;
26750;SDS011;14345;48.272;25.926;2023-03-19T02:46:11;44.95;;;29.42;;
26750;SDS011;14345;48.272;25.926;2023-03-19T02:48:37;47.35;;;29.40;;
26750;SDS011;14345;48.272;25.926;2023-03-19T02:51:05;48.88;;;30.10;;
26750;SDS011;14345;48.272;25.926;2023-03-19T02:53:31;47.38;;;29.48;;
26750;SDS011;14345;48.272;25.926;2023-03-19T02:55:59;48.05;;;29.17;;
26750;SDS011;14345;48.272;25.926;2023-03-19T02:58:25;47.28;;;30.02;;
26750;SDS011;14345;48.272;25.926;2023-03-19T03:00:51;45.75;;;30.23;;
26750;SDS011;14345;48.272;25.926;2023-03-19T03:03:17;51.95;;;31.48;;
26750;SDS011;14345;48.272;25.926;2023-03-19T03:05:43;45.55;;;29.02;;
26750;SDS011;14345;48.272;25.926;2023-03-19T03:08:09;46.55;;;29.77;;
26750;SDS011;14345;48.272;25.926;2023-03-19T03:10:35;46.08;;;29.42;;
26750;SDS011;14345;48.272;25.926;2023-03-19T03:13:01;47.90;;;29.65;;
26750;SDS011;14345;48.272;25.926;2023-03-19T03:15:29;49.42;;;30.83;;
26750;SDS011;14345;48.272;25.926;2023-03-19T03:17:55;47.58;;;30.60;;
26750;SDS011;14345;48.272;25.926;2023-03-19T03:20:21;47.60;;;31.50;;
26750;SDS011;14345;48.272;25.926;2023-03-19T03:22:48;47.92;;;31.23;;
26750;SDS011;14345;48.272;25.926;2023-03-19T03:25:15;44.15;;;29.52;;
26750;SDS011;14345;48.272;25.926;2023-03-19T03:27:42;49.05;;;29.95;;
26750;SDS011;14345;48.272;25.926;2023-03-19T03:30:08;46.22;;;29.58;;
26750;SDS011;14345;48.272;25.926;2023-03-19T03:32:35;46.50;;;29.50;;
26750;SDS011;14345;48.272;25.926;2023-03-19T03:35:01;46.40;;;29.13;;
26750;SDS011;14345;48.272;25.926;2023-03-19T03:37:28;49.05;;;30.92;;
26750;SDS011;14345;48.272;25.926;2023-03-19T03:39:54;55.85;;;33.80;;
26750;SDS011;14345;48.272;25.926;2023-03-19T03:42:20;47.42;;;29.63;;
26750;SDS011;14345;48.272;25.926;2023-03-19T03:44:46;45.67;;;29.25;;
26750;SDS011;14345;48.272;25.926;2023-03-19T03:47:12;48.88;;;30.05;;
26750;SDS011;14345;48.272;25.926;2023-03-19T03:49:38;45.65;;;29.65;;
26750;SDS011;14345;48.272;25.926;2023-03-19T03:52:05;47.42;;;29.98;;
26750;SDS011;14345;48.272;25.926;2023-03-19T03:54:33;47.70;;;31.00;;
26750;SDS011;14345;48.272;25.926;2023-03-19T03:56:59;48.33;;;30.95;;
26750;SDS011;14345;48.272;25.926;2023-03-19T03:59:26;45.65;;;29.70;;
26750;SDS011;14345;48.272;25.926;2023-03-19T04:01:52;45.78;;;30.08;;
26750;SDS011;14345;48.272;25.926;2023-03-19T04:04:18;49.15;;;30.85;;
26750;SDS011;14345;48.272;25.926;2023-03-19T04:06:44;52.03;;;30.85;;
26750;SDS011;14345;48.272;25.926;2023-03-19T04:09:10;47.65;;;30.27;;
26750;SDS011;14345;48.272;25.926;2023-03-19T04:11:37;45.72;;;29.88;;
26750;SDS011;14345;48.272;25.926;2023-03-19T04:14:03;50.65;;;32.05;;
26750;SDS011;14345;48.272;25.926;2023-03-19T04:16:31;52.20;;;32.53;;
26750;SDS011;14345;48.272;25.926;2023-03-19T04:18:57;51.88;;;31.98;;
26750;SDS011;14345;48.272;25.926;2023-03-19T04:21:23;52.13;;;31.85;;
26750;SDS011;14345;48.272;25.926;2023-03-19T04:23:50;48.75;;;31.30;;
26750;SDS011;14345;48.272;25.926;2023-03-19T04:26:16;49.92;;;31.10;;
26750;SDS011;14345;48.272;25.926;2023-03-19T04:28:42;51.90;;;31.15;;
26750;SDS011;14345;48.272;25.926;2023-03-19T04:31:08;47.72;;;30.58;;
26750;SDS011;14345;48.272;25.926;2023-03-19T04:33:35;45.78;;;31.42;;
26750;SDS011;14345;48.272;25.926;2023-03-19T04:36:01;47.90;;;31.38;;
26750;SDS011;14345;48.272;25.926;2023-03-19T04:38:28;47.28;;;30.25;;
26750;SDS011;14345;48.272;25.926;2023-03-19T04:40:55;47.30;;;31.02;;
26750;SDS011;14345;48.272;25.926;2023-03-19T04:43:21;51.22;;;32.92;;
26750;SDS011;14345;48.272;25.926;2023-03-19T04:45:47;52.38;;;32.55;;
26750;SDS011;14345;48.272;25.926;2023-03-19T04:48:14;58.65;;;37.55;;
26750;SDS011;14345;48.272;25.926;2023-03-19T04:50:41;58.58;;;37.78;;
26750;SDS011;14345;48.272;25.926;2023-03-19T04:53:07;52.55;;;33.88;;
26750;SDS011;14345;48.272;25.926;2023-03-19T04:55:33;54.65;;;33.75;;
26750;SDS011;14345;48.272;25.926;2023-03-19T04:57:59;55.75;;;35.53;;
26750;SDS011;14345;48.272;25.926;2023-03-19T05:00:25;50.03;;;32.22;;
26750;SDS011;14345;48.272;25.926;2023-03-19T05:02:52;52.58;;;32.38;;
26750;SDS011;14345;48.272;25.926;2023-03-19T05:05:18;54.75;;;34.13;;
26750;SDS011;14345;48.272;25.926;2023-03-19T05:07:44;50.67;;;32.90;;
26750;SDS011;14345;48.272;25.926;2023-03-19T05:10:10;54.72;;;33.17;;
26750;SDS011;14345;48.272;25.926;2023-03-19T05:12:36;52.67;;;33.30;;
26750;SDS011;14345;48.272;25.926;2023-03-19T05:15:02;53.85;;;34.28;;
26750;SDS011;14345;48.272;25.926;2023-03-19T05:17:29;54.03;;;32.83;;
26750;SDS011;14345;48.272;25.926;2023-03-19T05:19:55;51.80;;;33.83;;
26750;SDS011;14345;48.272;25.926;2023-03-19T05:22:21;57.70;;;34.00;;
26750;SDS011;14345;48.272;25.926;2023-03-19T05:24:48;57.88;;;35.53;;
26750;SDS011;14345;48.272;25.926;2023-03-19T05:27:14;53.45;;;34.30;;
26750;SDS011;14345;48.272;25.926;2023-03-19T05:29:40;56.45;;;35.88;;
26750;SDS011;14345;48.272;25.926;2023-03-19T05:32:07;61.92;;;36.72;;
26750;SDS011;14345;48.272;25.926;2023-03-19T05:34:34;57.00;;;34.92;;
26750;SDS011;14345;48.272;25.926;2023-03-19T05:37:00;53.10;;;33.97;;
26750;SDS011;14345;48.272;25.926;2023-03-19T05:39:26;60.35;;;36.83;;
26750;SDS011;14345;48.272;25.926;2023-03-19T05:41:52;59.33;;;36.47;;
26750;SDS011;14345;48.272;25.926;2023-03-19T05:44:18;62.67;;;36.53;;
26750;SDS011;14345;48.272;25.926;2023-03-19T05:46:45;64.72;;;37.50;;
26750;SDS011;14345;48.272;25.926;2023-03-19T05:49:11;61.08;;;37.35;;
26750;SDS011;14345;48.272;25.926;2023-03-19T05:51:37;66.38;;;37.40;;
26750;SDS011;14345;48.272;25.926;2023-03-19T05:54:03;72.80;;;40.35;;
26750;SDS011;14345;48.272;25.926;2023-03-19T05:56:29;63.63;;;39.25;;
26750;SDS011;14345;48.272;25.926;2023-03-19T05:58:55;63.45;;;37.45;;
26750;SDS011;14345;48.272;25.926;2023-03-19T06:01:21;58.97;;;36.20;;
26750;SDS011;14345;48.272;25.926;2023-03-19T06:03:47;64.25;;;37.75;;
26750;SDS011;14345;48.272;25.926;2023-03-19T06:06:13;67.00;;;39.58;;
26750;SDS011;14345;48.272;25.926;2023-03-19T06:08:40;57.60;;;36.25;;
26750;SDS011;14345;48.272;25.926;2023-03-19T06:11:07;60.75;;;36.35;;
26750;SDS011;14345;48.272;25.926;2023-03-19T06:13:33;67.50;;;38.88;;
26750;SDS011;14345;48.272;25.926;2023-03-19T06:15:59;73.78;;;42.47;;
26750;SDS011;14345;48.272;25.926;2023-03-19T06:18:25;64.88;;;38.08;;
26750;SDS011;14345;48.272;25.926;2023-03-19T06:20:51;58.20;;;37.35;;
26750;SDS011;14345;48.272;25.926;2023-03-19T06:23:17;55.28;;;35.65;;
26750;SDS011;14345;48.272;25.926;2023-03-19T06:25:43;55.80;;;35.10;;
26750;SDS011;14345;48.272;25.926;2023-03-19T06:28:10;60.10;;;35.85;;
26750;SDS011;14345;48.272;25.926;2023-03-19T06:30:36;57.88;;;35.58;;
26750;SDS011;14345;48.272;25.926;2023-03-19T06:33:02;61.30;;;35.92;;
26750;SDS011;14345;48.272;25.926;2023-03-19T06:35:28;58.03;;;34.83;;
26750;SDS011;14345;48.272;25.926;2023-03-19T06:37:54;53.40;;;33.55;;
26750;SDS011;14345;48.272;25.926;2023-03-19T06:40:20;55.78;;;32.83;;
26750;SDS011;14345;48.272;25.926;2023-03-19T06:42:46;56.47;;;34.67;;
26750;SDS011;14345;48.272;25.926;2023-03-19T06:45:13;58.97;;;34.03;;
26750;SDS011;14345;48.272;25.926;2023-03-19T06:47:43;52.85;;;32.88;;
26750;SDS011;14345;48.272;25.926;2023-03-19T06:50:11;62.80;;;37.13;;
26750;SDS011;14345;48.272;25.926;2023-03-19T06:52:37;59.40;;;37.63;;
26750;SDS011;14345;48.272;25.926;2023-03-19T06:55:03;62.78;;;40.72;;
26750;SDS011;14345;48.272;25.926;2023-03-19T06:57:30;60.03;;;37.13;;
26750;SDS011;14345;48.272;25.926;2023-03-19T06:59:56;52.80;;;33.47;;
26750;SDS011;14345;48.272;25.926;2023-03-19T07:02:22;58.17;;;33.63;;
26750;SDS011;14345;48.272;25.926;2023-03-19T07:04:48;53.63;;;34.20;;
26750;SDS011;14345;48.272;25.926;2023-03-19T07:07:14;52.85;;;32.90;;
26750;SDS011;14345;48.272;25.926;2023-03-19T07:09:40;57.03;;;35.63;;
26750;SDS011;14345;48.272;25.926;2023-03-19T07:12:07;53.40;;;32.50;;
26750;SDS011;14345;48.272;25.926;2023-03-19T07:14:33;47.03;;;30.23;;
26750;SDS011;14345;48.272;25.926;2023-03-19T07:16:59;52.38;;;32.75;;
26750;SDS011;14345;48.272;25.926;2023-03-19T07:19:25;49.55;;;32.08;;
26750;SDS011;14345;48.272;25.926;2023-03-19T07:21:51;47.67;;;29.52;;
26750;SDS011;14345;48.272;25.926;2023-03-19T07:24:17;53.67;;;32.25;;
26750;SDS011;14345;48.272;25.926;2023-03-19T07:26:43;50.95;;;32.40;;
26750;SDS011;14345;48.272;25.926;2023-03-19T07:29:10;56.88;;;34.67;;
26750;SDS011;14345;48.272;25.926;2023-03-19T07:31:36;47.75;;;30.08;;
26750;SDS011;14345;48.272;25.926;2023-03-19T07:34:02;46.00;;;29.63;;
26750;SDS011;14345;48.272;25.926;2023-03-19T07:36:28;49.15;;;31.23;;
26750;SDS011;14345;48.272;25.926;2023-03-19T07:38:55;50.67;;;29.95;;
26750;SDS011;14345;48.272;25.926;2023-03-19T07:41:21;51.60;;;31.52;;
26750;SDS011;14345;48.272;25.926;2023-03-19T07:43:47;52.25;;;31.98;;
26750;SDS011;14345;48.272;25.926;2023-03-19T07:46:14;61.17;;;36.10;;
26750;SDS011;14345;48.272;25.926;2023-03-19T07:48:40;51.60;;;32.85;;
26750;SDS011;14345;48.272;25.926;2023-03-19T07:51:06;47.08;;;29.77;;
26750;SDS011;14345;48.272;25.926;2023-03-19T07:53:32;61.60;;;37.65;;
26750;SDS011;14345;48.272;25.926;2023-03-19T07:55:58;62.47;;;36.95;;
26750;SDS011;14345;48.272;25.926;2023-03-19T07:58:24;55.28;;;34.60;;
26750;SDS011;14345;48.272;25.926;2023-03-19T08:00:51;56.38;;;34.33;;
26750;SDS011;14345;48.272;25.926;2023-03-19T08:03:17;61.88;;;36.92;;
26750;SDS011;14345;48.272;25.926;2023-03-19T08:05:43;59.63;;;37.25;;
26750;SDS011;14345;48.272;25.926;2023-03-19T08:08:10;48.75;;;31.40;;
26750;SDS011;14345;48.272;25.926;2023-03-19T08:10:37;47.92;;;30.58;;
26750;SDS011;14345;48.272;25.926;2023-03-19T08:13:03;51.72;;;32.50;;
26750;SDS011;14345;48.272;25.926;2023-03-19T08:15:29;44.33;;;29.67;;
26750;SDS011;14345;48.272;25.926;2023-03-19T08:17:58;56.42;;;33.38;;
26750;SDS011;14345;48.272;25.926;2023-03-19T08:20:24;47.28;;;29.98;;
26750;SDS011;14345;48.272;25.926;2023-03-19T08:22:50;53.30;;;31.10;;
26750;SDS011;14345;48.272;25.926;2023-03-19T08:25:16;51.95;;;32.53;;
26750;SDS011;14345;48.272;25.926;2023-03-19T08:27:42;50.45;;;32.25;;
26750;SDS011;14345;48.272;25.926;2023-03-19T08:30:09;51.58;;;31.95;;
26750;SDS011;14345;48.272;25.926;2023-03-19T08:32:35;47.95;;;31.95;;
26750;SDS011;14345;48.272;25.926;2023-03-19T08:35:02;50.47;;;33.13;;
26750;SDS011;14345;48.272;25.926;2023-03-19T08:37:28;48.55;;;30.40;;
26750;SDS011;14345;48.272;25.926;2023-03-19T08:39:54;50.70;;;32.10;;
26750;SDS011;14345;48.272;25.926;2023-03-19T08:42:20;45.45;;;31.55;;
26750;SDS011;14345;48.272;25.926;2023-03-19T08:44:47;43.78;;;30.58;;
26750;SDS011;14345;48.272;25.926;2023-03-19T08:47:13;54.13;;;35.95;;
26750;SDS011;14345;48.272;25.926;2023-03-19T08:49:39;53.03;;;35.60;;
26750;SDS011;14345;48.272;25.926;2023-03-19T08:52:05;47.20;;;32.22;;
26750;SDS011;14345;48.272;25.926;2023-03-19T08:54:31;46.60;;;30.77;;
26750;SDS011;14345;48.272;25.926;2023-03-19T08:56:58;48.95;;;32.85;;
26750;SDS011;14345;48.272;25.926;2023-03-19T08:59:25;43.40;;;29.83;;
26750;SDS011;14345;48.272;25.926;2023-03-19T09:01:51;41.40;;;28.83;;
26750;SDS011;14345;48.272;25.926;2023-03-19T09:04:18;42.13;;;29.30;;
26750;SDS011;14345;48.272;25.926;2023-03-19T09:06:44;43.75;;;29.05;;
26750;SDS011;14345;48.272;25.926;2023-03-19T09:09:10;45.13;;;29.30;;
26750;SDS011;14345;48.272;25.926;2023-03-19T09:11:36;41.88;;;28.60;;
26750;SDS011;14345;48.272;25.926;2023-03-19T09:14:02;40.70;;;27.23;;
26750;SDS011;14345;48.272;25.926;2023-03-19T09:16:28;45.65;;;29.55;;
26750;SDS011;14345;48.272;25.926;2023-03-19T09:18:55;54.72;;;36.15;;
26750;SDS011;14345;48.272;25.926;2023-03-19T09:21:21;53.53;;;33.10;;
26750;SDS011;14345;48.272;25.926;2023-03-19T09:23:47;50.20;;;30.85;;
26750;SDS011;14345;48.272;25.926;2023-03-19T09:26:13;49.58;;;33.53;;
26750;SDS011;14345;48.272;25.926;2023-03-19T09:28:39;39.63;;;28.35;;
26750;SDS011;14345;48.272;25.926;2023-03-19T09:31:07;48.08;;;31.17;;
26750;SDS011;14345;48.272;25.926;2023-03-19T09:33:33;48.33;;;32.28;;
26750;SDS011;14345;48.272;25.926;2023-03-19T09:35:59;43.53;;;28.40;;
26750;SDS011;14345;48.272;25.926;2023-03-19T09:38:25;45.05;;;29.83;;
26750;SDS011;14345;48.272;25.926;2023-03-19T09:46:05;40.00;;;26.90;;
26750;SDS011;14345;48.272;25.926;2023-03-19T09:48:34;44.20;;;27.80;;
26750;SDS011;14345;48.272;25.926;2023-03-19T09:51:04;39.25;;;27.02;;
26750;SDS011;14345;48.272;25.926;2023-03-19T09:56:01;42.72;;;27.67;;
26750;SDS011;14345;48.272;25.926;2023-03-19T09:58:31;43.15;;;30.17;;
26750;SDS011;14345;48.272;25.926;2023-03-19T10:00:57;36.30;;;25.73;;
26750;SDS011;14345;48.272;25.926;2023-03-19T10:14:03;33.20;;;23.25;;
26750;SDS011;14345;48.272;25.926;2023-03-19T10:16:33;39.90;;;26.40;;
26750;SDS011;14345;48.272;25.926;2023-03-19T10:19:01;31.15;;;22.48;;
26750;SDS011;14345;48.272;25.926;2023-03-19T10:21:36;37.95;;;25.55;;
26750;SDS011;14345;48.272;25.926;2023-03-19T10:26:32;28.25;;;20.52;;
26750;SDS011;14345;48.272;25.926;2023-03-19T10:31:39;28.92;;;20.08;;
26750;SDS011;14345;48.272;25.926;2023-03-19T10:34:20;27.67;;;20.38;;
26750;SDS011;14345;48.272;25.926;2023-03-19T10:36:47;29.25;;;20.45;;
26750;SDS011;14345;48.272;25.926;2023-03-19T10:39:14;24.70;;;17.92;;
26750;SDS011;14345;48.272;25.926;2023-03-19T10:44:41;23.25;;;16.83;;
26750;SDS011;14345;48.272;25.926;2023-03-19T10:47:10;36.17;;;24.92;;
26750;SDS011;14345;48.272;25.926;2023-03-19T10:49:36;33.28;;;24.02;;
26750;SDS011;14345;48.272;25.926;2023-03-19T10:52:02;24.23;;;18.27;;
26750;SDS011;14345;48.272;25.926;2023-03-19T10:54:29;26.02;;;18.83;;
26750;SDS011;14345;48.272;25.926;2023-03-19T10:56:55;22.52;;;16.40;;
26750;SDS011;14345;48.272;25.926;2023-03-19T10:59:29;20.60;;;16.55;;
26750;SDS011;14345;48.272;25.926;2023-03-19T11:01:57;22.40;;;16.65;;
26750;SDS011;14345;48.272;25.926;2023-03-19T11:04:24;20.65;;;15.85;;
26750;SDS011;14345;48.272;25.926;2023-03-19T11:06:52;23.48;;;17.08;;
26750;SDS011;14345;48.272;25.926;2023-03-19T11:14:35;22.38;;;15.25;;
26750;SDS011;14345;48.272;25.926;2023-03-19T11:17:22;21.73;;;16.90;;
26750;SDS011;14345;48.272;25.926;2023-03-19T11:19:53;17.92;;;13.93;;
26750;SDS011;14345;48.272;25.926;2023-03-19T11:22:21;21.83;;;15.73;;
26750;SDS011;14345;48.272;25.926;2023-03-19T11:24:49;20.33;;;14.40;;
26750;SDS011;14345;48.272;25.926;2023-03-19T11:27:16;17.67;;;14.23;;
26750;SDS011;14345;48.272;25.926;2023-03-19T11:29:43;17.67;;;14.18;;
26750;SDS011;14345;48.272;25.926;2023-03-19T11:32:19;23.65;;;17.02;;
26750;SDS011;14345;48.272;25.926;2023-03-19T11:35:08;20.98;;;13.93;;
26750;SDS011;14345;48.272;25.926;2023-03-19T11:37:55;19.40;;;14.70;;
26750;SDS011;14345;48.272;25.926;2023-03-19T11:40:26;18.20;;;13.50;;
26750;SDS011;14345;48.272;25.926;2023-03-19T11:45:32;20.05;;;14.70;;
26750;SDS011;14345;48.272;25.926;2023-03-19T11:50:43;16.27;;;13.45;;
26750;SDS011;14345;48.272;25.926;2023-03-19T11:56:01;16.95;;;13.05;;
26750;SDS011;14345;48.272;25.926;2023-03-19T12:01:53;16.55;;;13.68;;
26750;SDS011;14345;48.272;25.926;2023-03-19T12:06:44;19.55;;;13.98;;
26750;SDS011;14345;48.272;25.926;2023-03-19T12:09:27;18.30;;;13.40;;
26750;SDS011;14345;48.272;25.926;2023-03-19T12:12:00;16.42;;;12.25;;
26750;SDS011;14345;48.272;25.926;2023-03-19T12:14:35;26.05;;;17.25;;
26750;SDS011;14345;48.272;25.926;2023-03-19T12:17:19;18.65;;;13.38;;
26750;SDS011;14345;48.272;25.926;2023-03-19T12:22:29;17.00;;;12.57;;
26750;SDS011;14345;48.272;25.926;2023-03-19T12:25:19;17.17;;;12.63;;
26750;SDS011;14345;48.272;25.926;2023-03-19T12:27:50;18.98;;;12.70;;
26750;SDS011;14345;48.272;25.926;2023-03-19T12:30:24;18.63;;;13.80;;
26750;SDS011;14345;48.272;25.926;2023-03-19T12:35:44;15.57;;;11.90;;
26750;SDS011;14345;48.272;25.926;2023-03-19T12:41:03;13.45;;;10.40;;
26750;SDS011;14345;48.272;25.926;2023-03-19T12:49:07;14.55;;;11.02;;
26750;SDS011;14345;48.272;25.926;2023-03-19T12:51:35;13.98;;;10.77;;
26750;SDS011;14345;48.272;25.926;2023-03-19T13:02:04;13.40;;;9.75;;
26750;SDS011;14345;48.272;25.926;2023-03-19T13:04:34;15.32;;;11.02;;
26750;SDS011;14345;48.272;25.926;2023-03-19T13:07:14;14.32;;;9.90;;
26750;SDS011;14345;48.272;25.926;2023-03-19T13:09:42;14.13;;;9.90;;
26750;SDS011;14345;48.272;25.926;2023-03-19T13:23:06;19.85;;;12.10;;
26750;SDS011;14345;48.272;25.926;2023-03-19T13:25:41;14.43;;;10.80;;
26750;SDS011;14345;48.272;25.926;2023-03-19T13:28:10;11.27;;;9.23;;
26750;SDS011;14345;48.272;25.926;2023-03-19T13:30:36;16.02;;;12.13;;
26750;SDS011;14345;48.272;25.926;2023-03-19T13:33:04;13.15;;;10.68;;
26750;SDS011;14345;48.272;25.926;2023-03-19T13:35:36;13.50;;;11.10;;
26750;SDS011;14345;48.272;25.926;2023-03-19T13:40:55;10.93;;;8.55;;
26750;SDS011;14345;48.272;25.926;2023-03-19T13:53:40;15.52;;;12.07;;
26750;SDS011;14345;48.272;25.926;2023-03-19T13:56:10;14.10;;;10.25;;
26750;SDS011;14345;48.272;25.926;2023-03-19T14:03:56;14.88;;;9.20;;
26750;SDS011;14345;48.272;25.926;2023-03-19T14:06:44;12.48;;;9.75;;
26750;SDS011;14345;48.272;25.926;2023-03-19T14:17:35;12.02;;;10.05;;
26750;SDS011;14345;48.272;25.926;2023-03-19T14:20:05;11.25;;;9.48;;
26750;SDS011;14345;48.272;25.926;2023-03-19T14:23:30;12.02;;;8.77;;
26750;SDS011;14345;48.272;25.926;2023-03-19T14:28:16;17.67;;;12.13;;
26750;SDS011;14345;48.272;25.926;2023-03-19T14:30:44;15.63;;;11.07;;
26750;SDS011;14345;48.272;25.926;2023-03-19T14:33:15;13.77;;;10.27;;
26750;SDS011;14345;48.272;25.926;2023-03-19T14:35:44;12.68;;;9.77;;
26750;SDS011;14345;48.272;25.926;2023-03-19T14:38:12;12.02;;;10.05;;
26750;SDS011;14345;48.272;25.926;2023-03-19T14:40:46;13.77;;;9.93;;
26750;SDS011;14345;48.272;25.926;2023-03-19T14:48:11;14.18;;;11.15;;
26750;SDS011;14345;48.272;25.926;2023-03-19T14:50:48;12.97;;;9.83;;
26750;SDS011;14345;48.272;25.926;2023-03-19T14:56:22;15.45;;;10.95;;
26750;SDS011;14345;48.272;25.926;2023-03-19T14:58:52;15.03;;;11.17;;
26750;SDS011;14345;48.272;25.926;2023-03-19T15:01:18;14.13;;;10.68;;
26750;SDS011;14345;48.272;25.926;2023-03-19T15:03:45;13.43;;;10.63;;
26750;SDS011;14345;48.272;25.926;2023-03-19T15:06:11;14.38;;;10.18;;
26750;SDS011;14345;48.272;25.926;2023-03-19T15:08:38;15.55;;;10.45;;
26750;SDS011;14345;48.272;25.926;2023-03-19T15:11:28;13.25;;;9.95;;
26750;SDS011;14345;48.272;25.926;2023-03-19T15:14:08;14.05;;;10.45;;
26750;SDS011;14345;48.272;25.926;2023-03-19T15:19:02;15.77;;;10.85;;
26750;SDS011;14345;48.272;25.926;2023-03-19T15:21:29;15.10;;;10.15;;
26750;SDS011;14345;48.272;25.926;2023-03-19T15:23:55;13.18;;;10.35;;
26750;SDS011;14345;48.272;25.926;2023-03-19T15:26:32;15.98;;;10.70;;
26750;SDS011;14345;48.272;25.926;2023-03-19T15:28:58;17.10;;;11.93;;
26750;SDS011;14345;48.272;25.926;2023-03-19T15:31:44;15.10;;;11.85;;
26750;SDS011;14345;48.272;25.926;2023-03-19T15:34:17;17.58;;;12.13;;
26750;SDS011;14345;48.272;25.926;2023-03-19T15:36:43;18.75;;;12.93;;
26750;SDS011;14345;48.272;25.926;2023-03-19T15:39:10;20.05;;;13.10;;
26750;SDS011;14345;48.272;25.926;2023-03-19T15:41:39;16.33;;;11.68;;
26750;SDS011;14345;48.272;25.926;2023-03-19T15:44:09;16.92;;;11.15;;
26750;SDS011;14345;48.272;25.926;2023-03-19T15:46:37;18.55;;;12.20;;
26750;SDS011;14345;48.272;25.926;2023-03-19T15:49:08;16.30;;;11.43;;
26750;SDS011;14345;48.272;25.926;2023-03-19T15:51:35;21.83;;;12.90;;
26750;SDS011;14345;48.272;25.926;2023-03-19T15:54:02;20.13;;;12.80;;
26750;SDS011;14345;48.272;25.926;2023-03-19T15:56:29;18.15;;;11.95;;
26750;SDS011;14345;48.272;25.926;2023-03-19T15:58:56;18.58;;;11.60;;
26750;SDS011;14345;48.272;25.926;2023-03-19T16:01:22;20.20;;;12.63;;
26750;SDS011;14345;48.272;25.926;2023-03-19T16:03:58;18.10;;;11.95;;
26750;SDS011;14345;48.272;25.926;2023-03-19T16:06:27;20.23;;;12.98;;
26750;SDS011;14345;48.272;25.926;2023-03-19T16:08:54;17.17;;;10.98;;
26750;SDS011;14345;48.272;25.926;2023-03-19T16:13:55;20.83;;;12.55;;
26750;SDS011;14345;48.272;25.926;2023-03-19T16:16:21;17.15;;;11.85;;